Terminal Aerodrome Forecast
Issued by NWS

Home | Current Version | Previous Version | Text Only | Print | Product List | Glossary On
Versions: 1 2 3 4 5 6 7 8 9 10 11 12 13 14 15
000
FTUS41 KPBZ 122300
TAFBVI
TAF
KBVI 122320Z 1300/1324 23005KT P6SM BKN150
     FM131500 21010G20KT P6SM BKN100
     FM131900 21010KT 6SM -SHRA OVC040 PROB30 1319/1322 3SM TSRA
      OVC040CB
      AMD NOT SKED=

USA.gov is the U.S. government's official web portal to all federal, state and local government web resources and services.